createdAt,value
2018-03-22T00:00:32.928Z,78.20
2018-03-22T00:03:35.391Z,78.30
2018-03-22T00:06:37.961Z,78.40
2018-03-22T00:09:40.517Z,78.31
2018-03-22T00:12:43.097Z,78.09
2018-03-22T00:15:45.611Z,78.18
2018-03-22T00:18:48.101Z,78.02
2018-03-22T00:21:50.662Z,78.50
2018-03-22T00:24:53.234Z,78.37
2018-03-22T00:27:55.726Z,78.34
2018-03-22T00:30:58.242Z,78.25
2018-03-22T00:34:00.816Z,78.05
2018-03-22T00:37:03.379Z,78.04
2018-03-22T00:40:05.876Z,77.94
2018-03-22T00:43:08.401Z,77.43
2018-03-22T00:46:10.883Z,77.60
2018-03-22T00:49:13.331Z,77.38
2018-03-22T00:52:15.986Z,77.45
2018-03-22T00:55:18.552Z,77.32
2018-03-22T00:58:21.038Z,77.45
2018-03-22T01:01:23.568Z,76.66
2018-03-22T01:04:26.007Z,77.24
2018-03-22T01:07:28.477Z,77.06
2018-03-22T01:10:31.054Z,76.82
2018-03-22T01:13:33.523Z,76.70
2018-03-22T01:16:36.079Z,76.87
2018-03-22T01:19:38.560Z,76.69
2018-03-22T01:22:41.113Z,76.77
2018-03-22T01:25:43.567Z,76.78
2018-03-22T01:28:46.019Z,76.40
2018-03-22T01:31:48.522Z,76.78
2018-03-22T01:34:50.962Z,76.92
2018-03-22T01:37:53.511Z,77.53
2018-03-22T01:40:56.174Z,77.55
2018-03-22T01:43:58.839Z,78.93
2018-03-22T01:47:01.272Z,81.28
2018-03-22T01:50:03.734Z,83.27
2018-03-22T01:53:14.120Z,85.28
2018-03-22T01:56:16.674Z,86.67
2018-03-22T01:59:19.223Z,87.48
2018-03-22T02:02:21.664Z,88.54
2018-03-22T02:05:24.167Z,88.72
2018-03-22T02:08:26.608Z,89.50
2018-03-22T02:11:29.179Z,90.82
2018-03-22T02:14:31.835Z,91.23
2018-03-22T02:17:34.273Z,91.70
2018-03-22T02:20:36.732Z,92.89
2018-03-22T02:23:39.184Z,92.98
2018-03-22T02:26:41.690Z,92.90
2018-03-22T02:29:44.196Z,93.37
2018-03-22T02:32:46.718Z,93.59
2018-03-22T02:35:49.260Z,93.94
2018-03-22T02:38:51.795Z,94.64
2018-03-22T02:41:54.249Z,95.04
2018-03-22T02:44:56.720Z,94.91
2018-03-22T02:47:59.242Z,95.31
2018-03-22T02:51:01.879Z,95.21
2018-03-22T02:54:04.433Z,95.43
2018-03-22T02:57:06.864Z,95.43
2018-03-22T03:00:09.350Z,95.42
2018-03-22T03:03:11.777Z,95.61
2018-03-22T03:06:14.273Z,95.94
2018-03-22T03:09:16.740Z,95.94
2018-03-22T03:12:19.279Z,95.55
2018-03-22T03:15:21.865Z,95.36
2018-03-22T03:18:24.323Z,95.38
2018-03-22T03:21:26.884Z,95.10
2018-03-22T03:24:29.446Z,94.17
2018-03-22T03:27:31.884Z,94.30
2018-03-22T03:30:34.365Z,93.69
2018-03-22T03:33:36.929Z,93.94
2018-03-22T03:36:39.459Z,93.02
2018-03-22T03:39:41.925Z,92.50
2018-03-22T03:42:44.414Z,92.67
2018-03-22T03:45:46.875Z,92.42
2018-03-22T03:48:49.443Z,91.59
2018-03-22T03:51:51.896Z,91.33
2018-03-22T03:54:54.460Z,91.62
2018-03-22T03:57:57.024Z,91.02
2018-03-22T04:00:59.570Z,90.95
2018-03-22T04:04:02.053Z,90.60
2018-03-22T04:07:04.553Z,90.67
2018-03-22T04:10:07.070Z,90.15
2018-03-22T04:13:09.600Z,90.41
2018-03-22T04:16:12.087Z,90.10
2018-03-22T04:19:14.611Z,89.91
2018-03-22T04:22:17.093Z,90.49
2018-03-22T04:25:19.684Z,90.28
2018-03-22T04:28:22.111Z,91.15
2018-03-22T04:31:24.579Z,91.34
2018-03-22T04:34:27.034Z,91.28
2018-03-22T04:37:29.521Z,91.50
2018-03-22T04:40:31.984Z,92.18
2018-03-22T04:43:34.443Z,92.21
2018-03-22T04:46:37.009Z,92.28
2018-03-22T04:49:39.525Z,92.08
2018-03-22T04:52:42.039Z,92.11
2018-03-22T04:55:44.495Z,92.37
2018-03-22T04:58:47.051Z,92.22
2018-03-22T05:01:49.489Z,92.21
2018-03-22T05:04:51.980Z,92.26
2018-03-22T05:07:54.470Z,92.18
2018-03-22T05:10:57.076Z,91.99
2018-03-22T05:13:59.560Z,92.43
2018-03-22T05:17:02.078Z,92.43
2018-03-22T05:20:04.579Z,92.51
2018-03-22T05:23:07.032Z,92.84
2018-03-22T05:26:09.709Z,93.37
2018-03-22T05:29:12.154Z,93.52
2018-03-22T05:32:14.655Z,94.07
2018-03-22T05:35:17.192Z,94.42
2018-03-22T05:38:19.686Z,95.06
2018-03-22T05:41:22.214Z,95.12
2018-03-22T05:44:24.692Z,95.46
2018-03-22T05:47:27.176Z,96.00
2018-03-22T05:50:29.673Z,96.23
2018-03-22T05:53:32.107Z,96.29
2018-03-22T05:56:34.582Z,96.69
2018-03-22T05:59:38.001Z,96.92
2018-03-22T06:02:40.494Z,97.07
2018-03-22T06:05:43.022Z,97.20
2018-03-22T06:08:45.502Z,97.35
2018-03-22T06:11:48.045Z,97.32
2018-03-22T06:14:50.596Z,97.36
2018-03-22T06:17:53.066Z,97.10
2018-03-22T06:20:55.543Z,97.16
2018-03-22T06:23:57.960Z,97.42
2018-03-22T06:27:00.445Z,97.52
2018-03-22T06:30:02.918Z,97.25
2018-03-22T06:33:05.410Z,97.22
2018-03-22T06:36:07.900Z,97.18
2018-03-22T06:39:10.395Z,97.09
2018-03-22T06:42:12.874Z,96.81
2018-03-22T06:45:15.425Z,96.92
2018-03-22T06:48:17.877Z,97.09
2018-03-22T06:51:20.444Z,97.27
2018-03-22T06:54:22.941Z,97.13
2018-03-22T06:57:25.526Z,96.89
2018-03-22T07:00:28.042Z,97.49
2018-03-22T07:03:30.531Z,97.18
2018-03-22T07:06:33.057Z,97.28
2018-03-22T07:09:35.531Z,97.18
2018-03-22T07:12:38.076Z,96.95
2018-03-22T07:15:40.638Z,96.87
2018-03-22T07:18:43.138Z,97.00
2018-03-22T07:21:45.600Z,96.81
2018-03-22T07:24:48.120Z,96.94
2018-03-22T07:27:50.690Z,97.05
2018-03-22T07:30:53.151Z,97.12
2018-03-22T07:33:55.624Z,97.28
2018-03-22T07:36:58.117Z,97.47
2018-03-22T07:40:00.633Z,97.54
2018-03-22T07:43:08.924Z,97.38
2018-03-22T07:46:11.396Z,97.49
2018-03-22T07:49:13.952Z,97.28
2018-03-22T07:52:16.423Z,97.23
2018-03-22T07:55:18.891Z,97.36
2018-03-22T07:58:21.408Z,97.03
2018-03-22T08:01:23.864Z,97.21
2018-03-22T08:04:26.302Z,97.40
2018-03-22T08:07:28.787Z,97.30
2018-03-22T08:10:31.227Z,97.48
2018-03-22T08:13:33.693Z,97.21
2018-03-22T08:16:36.149Z,96.87
2018-03-22T08:19:38.658Z,96.44
2018-03-22T08:22:41.229Z,96.65
2018-03-22T08:25:43.787Z,96.48
2018-03-22T08:28:46.281Z,96.20
2018-03-22T08:31:48.721Z,96.63
2018-03-22T08:34:51.262Z,96.40
2018-03-22T08:37:53.727Z,95.89
2018-03-22T08:40:56.207Z,95.50
2018-03-22T08:43:58.748Z,95.28
2018-03-22T08:47:01.216Z,95.30
2018-03-22T08:50:03.669Z,95.20
2018-03-22T08:53:06.133Z,95.07
2018-03-22T08:56:08.697Z,95.43
2018-03-22T08:59:11.174Z,94.98
2018-03-22T09:02:13.659Z,94.70
2018-03-22T09:05:16.150Z,94.82
2018-03-22T09:08:18.606Z,94.75
2018-03-22T09:11:21.097Z,93.92
2018-03-22T09:14:23.620Z,93.76
2018-03-22T09:17:26.128Z,92.79
2018-03-22T09:20:28.593Z,93.25
2018-03-22T09:23:31.114Z,93.29
2018-03-22T09:26:39.237Z,92.63
2018-03-22T09:29:41.675Z,92.42
2018-03-22T09:32:44.165Z,92.50
2018-03-22T09:35:46.723Z,91.89
2018-03-22T09:38:49.184Z,92.08
2018-03-22T09:41:51.679Z,90.63
2018-03-22T09:44:54.221Z,90.85
2018-03-22T09:47:57.427Z,90.50
2018-03-22T09:50:59.908Z,91.25
2018-03-22T09:54:02.384Z,92.08
2018-03-22T09:57:04.885Z,92.82
2018-03-22T10:00:07.379Z,91.97
2018-03-22T10:03:09.888Z,90.60
2018-03-22T10:06:12.320Z,90.25
2018-03-22T10:09:14.909Z,89.56
2018-03-22T10:12:17.475Z,89.01
2018-03-22T10:15:19.909Z,89.28
2018-03-22T10:18:22.394Z,88.36
2018-03-22T10:21:24.957Z,87.88
2018-03-22T10:24:27.395Z,88.42
2018-03-22T10:27:29.878Z,89.21
2018-03-22T10:30:32.444Z,88.60
2018-03-22T10:33:34.908Z,87.66
2018-03-22T10:36:37.345Z,88.38
2018-03-22T10:39:39.829Z,89.01
2018-03-22T10:42:42.315Z,87.37
2018-03-22T10:45:44.826Z,86.86
2018-03-22T10:48:47.278Z,85.59
2018-03-22T10:51:49.763Z,86.53
2018-03-22T10:54:52.224Z,85.43
2018-03-22T10:57:54.686Z,83.97
2018-03-22T11:01:02.884Z,82.48
2018-03-22T11:04:08.185Z,82.46
2018-03-22T11:07:10.723Z,83.67
2018-03-22T11:10:13.188Z,82.55
2018-03-22T11:13:15.791Z,83.39
2018-03-22T11:16:18.234Z,83.16
2018-03-22T11:19:20.709Z,82.77
2018-03-22T11:22:23.230Z,84.81
2018-03-22T11:25:25.688Z,83.61
2018-03-22T11:28:28.168Z,85.61
2018-03-22T11:31:30.655Z,85.19
2018-03-22T11:34:33.130Z,83.86
2018-03-22T11:37:35.633Z,84.74
2018-03-22T11:40:38.151Z,85.63
2018-03-22T11:43:40.648Z,85.39
2018-03-22T11:46:43.170Z,86.21
2018-03-22T11:49:45.661Z,86.53
2018-03-22T11:52:48.189Z,86.68
2018-03-22T11:55:50.647Z,88.28
2018-03-22T11:58:53.119Z,87.72
2018-03-22T12:01:55.682Z,88.99
2018-03-22T12:04:58.184Z,89.33
2018-03-22T12:08:00.644Z,88.96
2018-03-22T12:11:03.183Z,89.10
2018-03-22T12:14:05.609Z,89.16
2018-03-22T12:17:08.089Z,89.24
2018-03-22T12:20:10.635Z,88.89
2018-03-22T12:23:13.106Z,90.18
2018-03-22T12:26:15.865Z,90.18
2018-03-22T12:29:18.295Z,90.60
2018-03-22T12:32:20.788Z,90.12
2018-03-22T12:35:23.454Z,90.44
2018-03-22T12:38:25.959Z,90.21
2018-03-22T12:41:28.507Z,89.71
2018-03-22T12:44:31.037Z,89.83
2018-03-22T12:47:33.663Z,89.96
2018-03-22T12:50:36.166Z,89.68
2018-03-22T12:53:38.650Z,89.22
2018-03-22T12:56:41.194Z,89.05
2018-03-22T12:59:43.717Z,88.23
2018-03-22T13:02:46.170Z,88.42
2018-03-22T13:05:48.657Z,88.26
2018-03-22T13:08:51.238Z,90.08
2018-03-22T13:11:53.722Z,90.86
2018-03-22T13:14:56.258Z,89.66
2018-03-22T13:17:58.825Z,89.16
2018-03-22T13:21:01.298Z,88.83
2018-03-22T13:24:03.801Z,89.28
2018-03-22T13:27:06.407Z,89.41
2018-03-22T13:30:08.967Z,89.26
2018-03-22T13:33:11.413Z,87.74
2018-03-22T13:36:13.915Z,87.51
2018-03-22T13:39:16.346Z,88.76
2018-03-22T13:42:18.857Z,88.18
2018-03-22T13:45:21.395Z,88.03
2018-03-22T13:48:23.863Z,88.49
2018-03-22T13:51:26.361Z,88.74
2018-03-22T13:54:28.861Z,88.06
2018-03-22T13:57:31.337Z,88.32
2018-03-22T14:00:34.697Z,88.26
2018-03-22T14:03:37.276Z,87.79
2018-03-22T14:06:39.827Z,88.83
2018-03-22T14:09:42.367Z,89.36
2018-03-22T14:12:44.907Z,89.05
2018-03-22T14:15:47.416Z,90.15
2018-03-22T14:18:50.041Z,90.47
2018-03-22T14:21:52.542Z,89.58
2018-03-22T14:24:55.218Z,89.60
2018-03-22T14:27:57.728Z,92.69
2018-03-22T14:31:00.244Z,92.10
2018-03-22T14:34:02.792Z,93.12
2018-03-22T14:37:05.267Z,92.62
2018-03-22T14:40:07.711Z,93.74
2018-03-22T14:43:10.685Z,93.99
2018-03-22T14:46:13.157Z,94.90
2018-03-22T14:49:15.705Z,94.85
2018-03-22T14:52:18.168Z,95.34
2018-03-22T14:55:20.638Z,95.44
2018-03-22T14:58:23.192Z,95.72
2018-03-22T15:01:25.769Z,96.37
2018-03-22T15:04:28.285Z,96.17
2018-03-22T15:07:30.873Z,96.13
2018-03-22T15:10:33.412Z,95.75
2018-03-22T15:13:35.899Z,96.06
2018-03-22T15:16:38.397Z,95.91
2018-03-22T15:19:40.932Z,95.87
2018-03-22T15:22:43.382Z,96.00
2018-03-22T15:25:45.859Z,95.81
2018-03-22T15:28:48.408Z,93.95
2018-03-22T15:31:50.937Z,94.45
2018-03-22T15:34:53.444Z,93.57
2018-03-22T15:37:55.972Z,93.00
2018-03-22T15:40:58.411Z,92.15
2018-03-22T15:44:00.859Z,91.26
2018-03-22T15:47:03.375Z,91.19
2018-03-22T15:50:05.939Z,91.59
2018-03-22T15:53:08.397Z,90.86
2018-03-22T15:56:10.968Z,91.00
2018-03-22T15:59:13.468Z,90.16
2018-03-22T16:02:15.934Z,90.29
2018-03-22T16:05:18.437Z,90.62
2018-03-22T16:08:20.906Z,89.73
2018-03-22T16:11:23.414Z,89.76
2018-03-22T16:14:25.883Z,89.97
2018-03-22T16:17:28.388Z,89.29
2018-03-22T16:20:30.901Z,89.02
2018-03-22T16:23:33.392Z,89.14
2018-03-22T16:26:35.974Z,89.68
2018-03-22T16:29:38.420Z,89.92
2018-03-22T16:32:40.937Z,89.35
2018-03-22T16:35:43.433Z,88.76
2018-03-22T16:38:47.102Z,88.92
2018-03-22T16:41:49.594Z,88.92
2018-03-22T16:44:52.045Z,88.35
2018-03-22T16:47:54.542Z,88.48
2018-03-22T16:50:57.020Z,88.35
2018-03-22T16:53:59.503Z,88.25
2018-03-22T16:57:02.019Z,88.54
2018-03-22T17:00:04.602Z,88.69
2018-03-22T17:03:07.055Z,87.96
2018-03-22T17:06:09.534Z,87.88
2018-03-22T17:09:12.010Z,87.87
2018-03-22T17:12:14.504Z,88.13
2018-03-22T17:15:17.538Z,88.26
2018-03-22T17:18:20.032Z,88.35
2018-03-22T17:21:22.493Z,88.49
2018-03-22T17:24:25.079Z,88.37
2018-03-22T17:27:27.641Z,88.56
2018-03-22T17:30:30.226Z,88.61
2018-03-22T17:33:32.787Z,88.76
2018-03-22T17:36:35.338Z,90.22
2018-03-22T17:39:37.995Z,90.70
2018-03-22T17:42:40.518Z,91.10
2018-03-22T17:45:43.120Z,92.14
2018-03-22T17:48:45.611Z,92.37
2018-03-22T17:51:48.145Z,93.20
2018-03-22T17:54:50.817Z,93.32
2018-03-22T17:57:53.309Z,93.91
2018-03-22T18:00:55.865Z,94.56
2018-03-22T18:03:58.407Z,95.51
2018-03-22T18:07:00.924Z,95.75
2018-03-22T18:10:03.526Z,95.59
2018-03-22T18:13:06.167Z,95.67
2018-03-22T18:16:08.964Z,95.28
2018-03-22T18:19:11.444Z,95.28
2018-03-22T18:22:13.952Z,95.33
2018-03-22T18:25:16.404Z,95.35
2018-03-22T18:28:19.010Z,95.35
2018-03-22T18:31:21.564Z,95.44
2018-03-22T18:34:24.124Z,95.46
2018-03-22T18:37:26.656Z,95.52
2018-03-22T18:40:29.275Z,95.70
2018-03-22T18:43:31.817Z,95.63
2018-03-22T18:46:34.390Z,95.49
2018-03-22T18:49:36.894Z,95.48
2018-03-22T18:52:39.351Z,95.46
2018-03-22T18:55:41.882Z,95.37
2018-03-22T18:58:44.383Z,95.98
2018-03-22T19:01:46.929Z,95.88
2018-03-22T19:04:49.446Z,96.23
2018-03-22T19:07:51.906Z,96.30
2018-03-22T19:10:54.482Z,96.41
2018-03-22T19:13:56.975Z,96.49
2018-03-22T19:16:59.470Z,96.66
2018-03-22T19:20:02.002Z,96.76
2018-03-22T19:23:04.560Z,96.74
2018-03-22T19:26:07.081Z,96.73
2018-03-22T19:29:09.601Z,96.92
2018-03-22T19:32:12.105Z,96.93
2018-03-22T19:35:14.670Z,96.89
2018-03-22T19:38:17.196Z,96.93
2018-03-22T19:41:19.687Z,96.92
2018-03-22T19:44:22.202Z,97.11
2018-03-22T19:47:24.721Z,97.12
2018-03-22T19:50:27.375Z,97.10
2018-03-22T19:53:29.872Z,97.36
2018-03-22T19:56:32.402Z,97.34
2018-03-22T19:59:34.993Z,97.50
2018-03-22T20:02:37.496Z,97.26
2018-03-22T20:05:40.158Z,97.68
2018-03-22T20:08:42.652Z,97.71
2018-03-22T20:11:45.198Z,97.62
2018-03-22T20:14:47.687Z,97.55
2018-03-22T20:17:50.228Z,97.48
2018-03-22T20:20:52.779Z,97.40
2018-03-22T20:23:55.297Z,97.43
2018-03-22T20:26:57.875Z,97.50
2018-03-22T20:30:00.385Z,97.40
2018-03-22T20:33:02.950Z,97.39
2018-03-22T20:36:05.573Z,97.58
2018-03-22T20:39:08.132Z,97.66
2018-03-22T20:42:12.042Z,97.89
2018-03-22T20:45:14.627Z,98.19
2018-03-22T20:48:17.163Z,98.13
2018-03-22T20:51:19.707Z,98.00
2018-03-22T20:54:22.253Z,98.03
2018-03-22T20:57:24.725Z,98.03
2018-03-22T21:00:27.276Z,98.12
2018-03-22T21:03:29.748Z,98.20
2018-03-22T21:06:32.469Z,98.34
2018-03-22T21:09:35.001Z,98.84
2018-03-22T21:12:37.539Z,99.13
2018-03-22T21:15:40.056Z,99.15
2018-03-22T21:18:42.607Z,99.21
2018-03-22T21:21:45.064Z,99.07
2018-03-22T21:24:47.747Z,98.94
2018-03-22T21:27:50.282Z,98.44
2018-03-22T21:30:52.762Z,98.05
2018-03-22T21:33:55.288Z,97.66
2018-03-22T21:36:57.773Z,97.10
2018-03-22T21:40:00.303Z,97.43
2018-03-22T21:43:02.813Z,97.18
2018-03-22T21:46:05.313Z,97.33
2018-03-22T21:49:07.809Z,97.39
2018-03-22T21:52:22.071Z,97.32
2018-03-22T21:55:24.634Z,97.15
2018-03-22T21:58:27.202Z,96.85
2018-03-22T22:01:29.702Z,96.69
2018-03-22T22:04:32.214Z,96.53
2018-03-22T22:07:34.729Z,96.05
2018-03-22T22:10:37.217Z,96.25
2018-03-22T22:13:39.694Z,96.17
2018-03-22T22:16:42.217Z,96.07
2018-03-22T22:19:44.864Z,95.66
2018-03-22T22:22:47.313Z,95.10
2018-03-22T22:25:49.798Z,95.07
2018-03-22T22:28:52.296Z,94.98
2018-03-22T22:31:54.776Z,94.62
2018-03-22T22:34:57.290Z,94.51
2018-03-22T22:37:59.758Z,94.03
2018-03-22T22:41:02.278Z,93.86
2018-03-22T22:44:04.792Z,93.92
2018-03-22T22:47:07.379Z,93.78
2018-03-22T22:50:09.862Z,93.32
2018-03-22T22:53:12.383Z,93.17
2018-03-22T22:56:14.933Z,93.24
2018-03-22T22:59:17.424Z,93.49
2018-03-22T23:02:19.866Z,93.46
2018-03-22T23:05:22.380Z,93.58
2018-03-22T23:08:24.860Z,93.98
2018-03-22T23:11:27.347Z,94.20
2018-03-22T23:14:29.813Z,94.27
2018-03-22T23:17:32.338Z,94.36
2018-03-22T23:20:34.863Z,94.41
2018-03-22T23:23:37.349Z,94.46
2018-03-22T23:26:39.829Z,94.46
2018-03-22T23:29:42.339Z,94.55
2018-03-22T23:32:44.825Z,94.62
2018-03-22T23:35:47.362Z,94.67
2018-03-22T23:38:49.870Z,94.76
2018-03-22T23:41:52.348Z,94.91
2018-03-22T23:44:54.886Z,94.94
2018-03-22T23:47:57.391Z,95.41
2018-03-22T23:50:59.875Z,95.59
2018-03-22T23:54:02.368Z,95.67
2018-03-22T23:57:04.807Z,95.70
